Ditchingham, United Kingdom
Current Conditions -  °F | °C
As of 3:50 AM on Friday 19 Dec 2014 (Local Time) from EGSH Reporting Station
Moderate Rain Moderate Rain  
Wind Chill: 55°   Ceiling: 1300
Heat Index: 55°   Visibility: 6mi
Dew Point: 52°   Wind: 21mph
Humidity: 88%   Direction: 240°WSW
Pressure: 29.68"   Gusts: NA
Location:  52.47°N, 1.44°E
Report Text: EGSH 190350Z AUTO 24018KT 220V300 9999 RA BKN013/// BKN017/// 13/11 Q1005
Loading
Personal Weather Stations






























Interactive Weather Map New forecast layout! Learn more

10-Day Weather Forecast

Advertisements
Track Severe Weather on mobile